Time;durP1;ratioP1;P1;durP2;ratioP2;P2;SDS_P1;SDS_P2;PMS_P1;PMS_P2;Temp;Humidity;BMP_temperature;BMP_pressure;BME280_temperature;BME280_humidity;BME280_pressure;Samples;Min_cycle;Max_cycle;Signal;HPM_P1;HPM_P2
2022/06/21 00:03:34;;;;;;;9.82;6.63;;;;;;;14.92;85.02;97245.31;10498449;28;19947;-57
2022/06/21 00:08:34;;;;;;;;;;;;;;;14.87;85.33;97241.97;10455769;28;20056;-57
2022/06/21 00:13:34;;;;;;;9.38;6.90;;;;;;;14.77;86.21;97236.97;10456444;28;19951;-57
2022/06/21 00:18:36;;;;;;;11.18;7.03;;;;;;;14.67;86.22;97222.44;10454755;28;20572;-57
2022/06/21 00:23:35;;;;;;;9.25;7.15;;;;;;;14.50;86.72;97228.09;10455442;28;20460;-57
2022/06/21 00:28:34;;;;;;;10.60;7.53;;;;;;;14.25;87.97;97233.03;10434731;28;20508;-57
2022/06/21 00:33:33;;;;;;;8.43;6.50;;;;;;;14.13;88.34;97223.75;10455361;28;20020;-57
2022/06/21 00:38:34;;;;;;;11.35;7.03;;;;;;;14.03;88.60;97226.59;10453994;28;20040;-57
2022/06/21 00:43:38;;;;;;;12.57;8.43;;;;;;;14.04;88.14;97236.16;10455535;28;20066;-57
2022/06/21 00:48:41;;;;;;;11.70;8.55;;;;;;;14.01;88.73;97224.06;10453907;28;20063;-57
2022/06/21 00:53:49;;;;;;;11.23;7.93;;;;;;;13.88;89.07;97213.03;10453066;28;20455;-57
2022/06/21 00:58:49;;;;;;;11.05;8.40;;;;;;;13.89;88.93;97214.75;10461018;28;20061;-57
2022/06/21 01:04:24;;;;;;;12.63;8.18;;;;;;;13.90;88.46;97206.03;10432248;28;20067;-57
2022/06/21 01:09:36;;;;;;;10.60;8.63;;;;;;;13.82;89.34;97207.97;10368979;28;20076;-57
2022/06/21 01:14:38;;;;;;;11.13;7.78;;;;;;;13.61;90.78;97214.53;10436954;28;20059;-57
2022/06/21 01:20:03;;;;;;;12.57;8.95;;;;;;;13.58;90.17;97219.78;10455579;28;20505;-57
2022/06/21 01:25:21;;;;;;;11.55;8.05;;;;;;;13.61;89.94;97221.47;10453005;28;20078;-57
2022/06/21 01:30:26;;;;;;;11.02;7.93;;;;;;;13.60;89.59;97211.94;10451350;28;20083;-57
2022/06/21 01:35:35;;;;;;;12.43;8.15;;;;;;;13.61;89.33;97214.53;10454741;28;20078;-57
2022/06/21 01:40:42;;;;;;;12.85;7.95;;;;;;;13.62;89.34;97208.41;10454162;28;20067;-57
2022/06/21 01:45:46;;;;;;;11.65;7.80;;;;;;;13.55;89.44;97202.47;10454623;28;20072;-57
2022/06/21 01:50:47;;;;;;;10.75;8.10;;;;;;;13.54;89.43;97197.31;10452988;28;20063;-57
2022/06/21 01:55:51;;;;;;;11.90;7.53;;;;;;;13.50;89.50;97190.41;10459944;28;20051;-57
2022/06/21 02:00:56;;;;;;;9.88;7.15;;;;;;;13.42;89.77;97187.97;10474360;28;20064;-57
2022/06/21 02:05:59;;;;;;;12.93;7.75;;;;;;;13.47;89.27;97193.03;10462127;28;20060;-57
2022/06/21 02:11:03;;;;;;;11.52;8.45;;;;;;;13.40;89.47;97184.53;10460569;28;20078;-57
2022/06/21 02:16:15;;;;;;;13.23;8.65;;;;;;;13.48;89.30;97197.38;10461619;28;20062;-57
2022/06/21 02:21:32;;;;;;;15.45;8.57;;;;;;;13.48;89.35;97186.97;10461221;28;20474;-57
2022/06/21 02:26:33;;;;;;;13.77;8.55;;;;;;;13.51;89.51;97198.16;10459760;28;20063;-57
2022/06/21 02:31:32;;;;;;;10.45;7.90;;;;;;;13.52;89.24;97192.06;10460570;28;20076;-57
2022/06/21 02:36:40;;;;;;;12.00;7.88;;;;;;;13.52;89.64;97189.47;10459747;28;20060;-57
2022/06/21 02:41:42;;;;;;;13.60;8.45;;;;;;;13.52;89.71;97184.25;10460485;28;20064;-57
2022/06/21 02:46:46;;;;;;;13.73;7.95;;;;;;;13.42;90.02;97177.53;10458508;28;20063;-57
2022/06/21 02:51:54;;;;;;;13.85;7.55;;;;;;;13.37;89.93;97168.94;10441403;28;20056;-57
2022/06/21 02:57:11;;;;;;;13.27;7.78;;;;;;;13.37;90.11;97163.72;10458976;28;20059;-57
2022/06/21 03:02:20;;;;;;;12.38;8.57;;;;;;;13.34;90.36;97163.81;10487621;28;20067;-57
2022/06/21 03:07:23;;;;;;;11.10;8.13;;;;;;;13.29;90.26;97156.09;10500317;28;20719;-57
2022/06/21 03:12:27;;;;;;;14.63;8.23;;;;;;;13.23;90.27;97165.78;10474254;28;20392;-57
2022/06/21 03:17:52;;;;;;;14.02;7.95;;;;;;;13.10;90.84;97154.75;10438629;28;20067;-57
2022/06/21 03:22:54;;;;;;;11.75;8.00;;;;;;;13.04;90.90;97155.72;10456194;28;20475;-57
2022/06/21 03:27:55;;;;;;;13.73;8.70;;;;;;;13.10;90.72;97146.94;10458725;28;20091;-57
2022/06/21 03:32:57;;;;;;;15.85;8.82;;;;;;;13.23;90.53;97150.13;10459182;28;20071;-57
2022/06/21 03:37:57;;;;;;;12.73;8.85;;;;;;;13.35;90.32;97157.69;10457012;28;20143;-57
2022/06/21 03:43:05;;;;;;;11.93;7.80;;;;;;;13.46;90.14;97150.50;10457166;28;20089;-57
2022/06/21 03:48:14;;;;;;;15.73;9.55;;;;;;;13.64;89.88;97146.66;10456102;28;20060;-57
2022/06/21 03:53:20;;;;;;;12.98;8.98;;;;;;;13.77;89.31;97155.91;10457460;28;20106;-57
2022/06/21 03:58:22;;;;;;;14.88;8.90;;;;;;;13.92;89.00;97161.66;10450471;28;20064;-57
2022/06/21 04:03:26;;;;;;;17.27;9.70;;;;;;;13.96;89.10;97163.28;10498308;28;20054;-57
2022/06/21 04:08:38;;;;;;;10.20;8.07;;;;;;;13.82;89.31;97171.47;10486166;28;20067;-57
2022/06/21 04:13:47;;;;;;;13.15;8.55;;;;;;;13.79;89.44;97158.47;10456399;28;20056;-57
2022/06/21 04:18:52;;;;;;;12.30;8.23;;;;;;;13.77;89.48;97152.44;10456935;28;20066;-57
2022/06/21 04:24:04;;;;;;;12.02;8.57;;;;;;;13.95;89.06;97154.59;10454695;28;20094;-57
2022/06/21 04:29:10;;;;;;;13.38;9.20;;;;;;;14.03;88.96;97154.44;10456352;28;20083;-57
2022/06/21 04:34:29;;;;;;;16.33;9.95;;;;;;;14.16;88.60;97157.59;10455391;28;20062;-57
2022/06/21 04:39:36;;;;;;;14.23;9.50;;;;;;;14.19;88.41;97163.59;10461526;28;20501;-57
2022/06/21 04:44:35;;;;;;;13.98;9.85;;;;;;;14.41;88.12;97156.06;10485284;28;20052;-57
2022/06/21 04:49:40;;;;;;;13.02;10.27;;;;;;;14.51;87.85;97134.94;10469292;28;20104;-57
2022/06/21 04:54:40;;;;;;;17.27;11.98;;;;;;;14.82;87.84;97135.84;10464921;28;20052;-57
2022/06/21 04:59:47;;;;;;;13.50;10.60;;;;;;;15.15;87.24;97133.16;10477113;28;20063;-57
2022/06/21 05:04:48;;;;;;;19.55;10.98;;;;;;;15.47;85.36;97128.75;10463948;28;20483;-57
2022/06/21 05:09:50;;;;;;;11.85;8.93;;;;;;;15.66;83.11;97135.09;10485157;28;20067;-57
2022/06/21 05:14:55;;;;;;;11.75;9.57;;;;;;;15.92;82.24;97150.94;10451937;28;20047;-57
2022/06/21 05:19:58;;;;;;;15.90;9.48;;;;;;;15.99;81.49;97163.75;10491771;28;20071;-57
2022/06/21 05:24:59;;;;;;;15.38;8.80;;;;;;;16.21;80.30;97160.47;10457523;28;20501;-57
2022/06/21 05:30:05;;;;;;;15.60;8.73;;;;;;;16.47;79.68;97156.97;10468595;28;20071;-57
2022/06/21 05:35:14;;;;;;;15.45;9.20;;;;;;;16.82;79.86;97157.53;10466056;28;20055;-57
2022/06/21 05:40:21;;;;;;;13.43;8.93;;;;;;;17.19;79.50;97158.81;10496032;28;20534;-57
2022/06/21 05:45:27;;;;;;;12.00;7.95;;;;;;;17.39;77.22;97144.94;10447010;28;20475;-57
2022/06/21 05:50:30;;;;;;;11.25;8.35;;;;;;;17.69;75.76;97153.41;10464051;28;20056;-57
2022/06/21 05:55:37;;;;;;;9.85;7.82;;;;;;;17.92;74.34;97147.28;10491413;28;20058;-57
2022/06/21 06:00:49;;;;;;;12.25;8.25;;;;;;;18.26;73.03;97159.03;10464742;28;20437;-57
2022/06/21 06:05:49;;;;;;;11.10;8.10;;;;;;;18.54;71.11;97149.06;10503495;28;20075;-57
2022/06/21 06:10:49;;;;;;;9.60;7.97;;;;;;;18.90;70.06;97145.81;10469244;28;20545;-57
2022/06/21 06:15:57;;;;;;;13.00;8.90;;;;;;;18.97;69.50;97130.59;10503752;28;20055;-57
2022/06/21 06:21:28;;;;;;;13.38;8.50;;;;;;;19.29;69.78;97152.81;10472649;28;20091;-57
2022/06/21 06:26:33;;;;;;;14.85;8.05;;;;;;;19.51;67.68;97151.81;10448857;28;20072;-57
2022/06/21 06:31:51;;;;;;;11.27;7.22;;;;;;;19.74;67.41;97148.16;10471375;28;20071;-57
2022/06/21 06:36:59;;;;;;;14.00;7.53;;;;;;;20.01;66.11;97145.97;10442502;28;20113;-57
2022/06/21 06:42:23;;;;;;;9.77;7.22;;;;;;;20.20;65.22;97136.22;10476571;28;20059;-57
2022/06/21 06:47:31;;;;;;;13.98;7.65;;;;;;;20.47;64.68;97127.91;10460090;28;20060;-57
2022/06/21 06:52:29;;;;;;;14.00;7.65;;;;;;;20.84;63.02;97126.00;10458679;28;20063;-57
2022/06/21 06:57:47;;;;;;;10.73;6.40;;;;;;;21.17;61.15;97127.78;10450424;28;20031;-57
2022/06/21 07:02:56;;;;;;;7.75;5.85;;;;;;;21.40;60.47;97119.50;10498484;28;20494;-57
2022/06/21 07:08:17;;;;;;;8.95;6.03;;;;;;;21.62;60.25;97105.13;10490690;28;20051;-57
2022/06/21 07:13:16;;;;;;;7.95;5.95;;;;;;;21.99;60.36;97118.91;10467592;28;20071;-57
2022/06/21 07:18:30;;;;;;;9.00;6.10;;;;;;;22.19;56.75;97121.25;10456956;28;20066;-57
2022/06/21 07:23:30;;;;;;;8.40;5.47;;;;;;;22.48;57.01;97124.81;10441550;28;20059;-57
2022/06/21 07:28:35;;;;;;;7.70;5.97;;;;;;;22.73;56.55;97121.59;10425117;28;20145;-57
2022/06/21 07:33:43;;;;;;;9.57;6.20;;;;;;;22.91;54.33;97130.25;10472353;28;20056;-57
2022/06/21 07:38:49;;;;;;;10.88;6.50;;;;;;;23.22;55.15;97120.41;10458179;28;20051;-58
2022/06/21 07:43:51;;;;;;;7.95;6.47;;;;;;;23.48;54.13;97113.50;10459678;28;20844;-58
2022/06/21 07:49:16;;;;;;;9.35;6.35;;;;;;;23.87;53.75;97119.84;10417062;28;20492;-58
2022/06/21 07:54:22;;;;;;;10.02;6.70;;;;;;;24.16;54.46;97122.38;10424679;28;20471;-58
2022/06/21 07:59:26;;;;;;;9.88;6.38;;;;;;;24.31;52.30;97117.88;10471996;28;20055;-58
2022/06/21 08:10:11;;;;;;;8.70;5.93;;;;;;;25.15;52.14;97117.44;10478707;28;20055;-58
2022/06/21 08:15:10;;;;;;;9.85;5.70;;;;;;;25.47;49.64;97127.63;10463626;28;20044;-57
2022/06/21 08:20:28;;;;;;;8.27;5.60;;;;;;;25.79;48.15;97119.19;10445767;28;20447;-58
2022/06/21 08:25:32;;;;;;;9.40;6.35;;;;;;;26.02;49.04;97118.34;10459486;28;20454;-58
2022/06/21 08:30:38;;;;;;;9.50;5.72;;;;;;;26.14;48.73;97112.09;10461828;28;20071;-58
2022/06/21 08:35:44;;;;;;;12.45;6.45;;;;;;;26.36;48.37;97105.19;10500115;28;20054;-58
2022/06/21 08:40:57;;;;;;;9.93;6.75;;;;;;;26.76;47.31;97118.13;10477455;28;20063;-58
2022/06/21 08:46:33;;;;;;;7.90;5.35;;;;;;;27.08;45.28;97114.81;10467987;28;20055;-58
2022/06/21 08:51:35;;;;;;;7.35;6.15;;;;;;;27.42;46.00;97113.84;10447324;28;20100;-58
2022/06/21 08:56:43;;;;;;;6.40;5.00;;;;;;;27.84;44.55;97110.53;10437313;28;20069;-58
2022/06/21 09:02:21;;;;;;;6.27;5.67;;;;;;;28.04;45.09;97111.56;10476691;28;20121;-58
2022/06/21 09:07:23;;;;;;;6.03;5.43;;;;;;;28.06;46.03;97114.97;10381958;28;20927;-58
2022/06/21 09:12:47;;;;;;;8.73;6.20;;;;;;;27.96;44.15;97106.00;10460131;28;20048;-58
2022/06/21 09:18:01;;;;;;;12.15;6.10;;;;;;;28.43;43.35;97101.25;10436818;28;20052;-58
2022/06/21 09:23:11;;;;;;;6.20;4.60;;;;;;;28.91;43.55;97111.44;10427411;28;20066;-58
2022/06/21 09:28:24;;;;;;;6.00;4.80;;;;;;;29.02;41.58;97103.34;10430283;28;20487;-58
2022/06/21 09:33:49;;;;;;;5.50;4.93;;;;;;;29.00;40.38;97104.47;10459905;28;20788;-58
2022/06/21 09:39:07;;;;;;;5.80;5.03;;;;;;;29.19;40.64;97098.38;10425828;28;20439;-58
2022/06/21 09:44:25;;;;;;;6.13;5.10;;;;;;;29.27;39.86;97102.09;10475387;28;20058;-58
2022/06/21 09:49:40;;;;;;;6.18;5.57;;;;;;;29.39;38.49;97107.31;10425693;28;20063;-58
2022/06/21 09:54:46;;;;;;;8.30;7.40;;;;;;;29.64;38.58;97106.00;10443660;28;20059;-58
2022/06/21 10:00:18;;;;;;;6.78;5.55;;;;;;;29.81;40.10;97094.66;10459436;28;20071;-58
2022/06/21 10:05:20;;;;;;;6.28;5.68;;;;;;;29.92;38.05;97097.22;10454887;28;20115;-58
2022/06/21 10:11:08;;;;;;;8.52;5.20;;;;;;;30.35;38.34;97087.09;10461059;28;20039;-58
2022/06/21 10:16:16;;;;;;;6.27;5.67;;;;;;;30.70;37.55;97091.91;10434712;28;20483;-58
2022/06/21 10:21:21;;;;;;;9.38;5.97;;;;;;;30.59;37.45;97094.72;10435428;28;20059;-58
2022/06/21 10:26:23;;;;;;;6.75;6.03;;;;;;;30.66;36.88;97089.66;10441385;28;20132;-58
2022/06/21 10:31:37;;;;;;;7.40;6.50;;;;;;;30.60;37.36;97085.69;10459946;28;20157;-58
2022/06/21 10:37:02;;;;;;;7.60;6.57;;;;;;;30.13;38.33;97099.78;10467002;28;20054;-58
2022/06/21 10:42:48;;;;;;;10.55;6.82;;;;;;;30.02;38.64;97070.47;10464200;28;20058;-58
2022/06/21 10:48:08;;;;;;;11.48;6.90;;;;;;;30.38;39.81;97088.66;10435405;28;21054;-58
2022/06/21 10:53:16;;;;;;;15.43;6.95;;;;;;;30.75;39.74;97094.16;10443598;28;20055;-58
2022/06/21 10:58:44;;;;;;;12.48;6.97;;;;;;;31.09;36.97;97081.09;10462647;28;20097;-58
2022/06/21 11:04:08;;;;;;;9.07;6.68;;;;;;;30.87;36.60;97081.41;10460459;28;20074;-58
2022/06/21 11:09:24;;;;;;;7.50;6.80;;;;;;;30.98;35.72;97075.91;10501955;28;20059;-58
2022/06/21 11:14:38;;;;;;;10.02;7.30;;;;;;;31.06;35.99;97076.03;10479709;28;20054;-58
2022/06/21 11:20:07;;;;;;;8.27;7.03;;;;;;;30.37;37.27;97076.25;10451019;28;20058;-58
2022/06/21 11:25:18;;;;;;;13.15;7.13;;;;;;;30.02;36.35;97075.81;10419113;28;20554;-58
2022/06/21 11:30:33;;;;;;;9.25;6.93;;;;;;;30.06;37.79;97095.97;10431547;28;20072;-58
2022/06/21 11:35:59;;;;;;;8.70;6.53;;;;;;;30.31;35.57;97091.06;10419816;28;20059;-58
2022/06/21 11:41:06;;;;;;;7.25;6.43;;;;;;;30.52;36.03;97075.72;10442881;28;20060;-58
2022/06/21 11:46:14;;;;;;;9.07;7.47;;;;;;;30.69;35.67;97079.47;10453670;28;20502;-58
2022/06/21 11:51:30;;;;;;;;;;;;;;;30.85;36.36;97091.44;10457245;28;20059;-58
2022/06/21 11:56:48;;;;;;;9.63;6.85;;;;;;;30.73;36.16;97072.00;10456378;28;19962;-58
2022/06/21 12:02:10;;;;;;;9.77;7.20;;;;;;;30.77;35.79;97078.75;10469891;28;20070;-58
2022/06/21 12:07:15;;;;;;;7.88;6.25;;;;;;;30.95;35.57;97063.63;10410472;28;20075;-58
2022/06/21 12:12:26;;;;;;;9.68;6.45;;;;;;;31.15;34.64;97075.16;10447831;28;20097;-58
2022/06/21 12:17:50;;;;;;;10.35;7.43;;;;;;;31.03;36.60;97076.31;10414604;28;20459;-58
2022/06/21 12:23:02;;;;;;;10.18;7.05;;;;;;;30.74;36.85;97079.03;10423673;28;20071;-58
2022/06/21 12:28:04;;;;;;;12.02;6.97;;;;;;;30.78;35.60;97077.78;10431199;28;20064;-58
2022/06/21 12:33:04;;;;;;;8.68;6.72;;;;;;;30.80;36.36;97064.25;10414469;28;20079;-58
2022/06/21 12:38:04;;;;;;;9.10;7.30;;;;;;;30.73;37.31;97039.88;10444267;28;20063;-58
2022/06/21 12:43:39;;;;;;;12.68;7.22;;;;;;;30.92;37.86;97063.91;10453067;28;20063;-58
2022/06/21 12:48:48;;;;;;;10.07;7.95;;;;;;;30.86;36.29;97074.34;10419189;28;20052;-58
2022/06/21 12:54:14;;;;;;;8.55;6.75;;;;;;;30.55;36.75;97079.94;10413954;28;20746;-59
2022/06/21 12:59:19;;;;;;;8.93;7.50;;;;;;;30.46;38.41;97088.81;10422951;28;20055;-58
2022/06/21 13:04:44;;;;;;;9.10;7.57;;;;;;;30.64;38.30;97064.84;10451882;28;20490;-58
2022/06/21 13:09:43;;;;;;;9.63;7.45;;;;;;;30.40;37.01;97066.16;10453290;28;20051;-58
2022/06/21 13:15:20;;;;;;;9.30;7.65;;;;;;;30.36;38.23;97062.03;10496990;28;20031;-58
2022/06/21 13:20:44;;;;;;;10.40;7.03;;;;;;;30.52;38.66;97066.84;10484573;28;20455;-58
2022/06/21 13:26:14;;;;;;;10.52;6.55;;;;;;;30.78;36.39;97068.91;10440101;28;20475;-58
2022/06/21 13:31:22;;;;;;;9.45;7.55;;;;;;;30.49;37.15;97072.44;10413976;28;20107;-58
2022/06/21 13:36:36;;;;;;;10.02;7.15;;;;;;;30.63;37.71;97058.66;10454855;28;20059;-58
2022/06/21 13:47:25;;;;;;;17.52;8.32;;;;;;;30.60;37.51;97082.16;10437478;28;20056;-58
2022/06/21 13:53:13;;;;;;;9.45;7.45;;;;;;;30.42;37.68;97065.97;10461178;28;20067;-58
2022/06/21 13:58:13;;;;;;;10.40;7.03;;;;;;;30.48;37.66;97065.41;10457635;28;20063;-58
2022/06/21 14:03:44;;;;;;;11.18;7.05;;;;;;;30.46;37.72;97089.66;10462289;28;20062;-58
2022/06/21 14:08:57;;;;;;;9.88;6.80;;;;;;;30.40;38.59;97070.59;10466909;28;20051;-58
2022/06/21 14:14:16;;;;;;;9.38;6.35;;;;;;;30.50;37.23;97068.81;10502829;28;20465;-58
2022/06/21 14:19:36;;;;;;;9.50;6.97;;;;;;;30.84;37.04;97071.81;10502189;28;20517;-58
2022/06/21 14:24:41;;;;;;;11.90;7.00;;;;;;;30.87;36.56;97076.06;10441308;28;20443;-58
2022/06/21 14:30:01;;;;;;;12.55;7.43;;;;;;;30.87;37.33;97076.06;10433407;28;20460;-58
2022/06/21 14:35:17;;;;;;;8.23;6.50;;;;;;;30.77;36.28;97068.03;10458740;28;20447;-59
2022/06/21 14:40:40;;;;;;;8.85;5.40;;;;;;;30.61;38.17;97059.75;10440888;28;20060;-58
2022/06/21 14:45:55;;;;;;;8.40;6.50;;;;;;;30.41;38.65;97064.31;10458760;28;20066;-58
2022/06/21 14:51:01;;;;;;;11.10;6.78;;;;;;;30.17;37.62;97081.63;10452717;28;20842;-58
2022/06/21 14:56:03;;;;;;;14.18;6.40;;;;;;;30.11;38.49;97069.63;10434087;28;20051;-58
2022/06/21 15:01:12;;;;;;;11.07;6.22;;;;;;;30.09;37.85;97063.59;10432071;28;20056;-58
2022/06/21 15:06:23;;;;;;;7.85;5.70;;;;;;;30.30;37.08;97063.44;10434089;28;20133;-58
2022/06/21 15:11:53;;;;;;;13.23;5.85;;;;;;;29.94;37.45;97066.81;10456863;28;20062;-58
2022/06/21 15:17:07;;;;;;;9.40;6.80;;;;;;;29.97;38.41;97074.56;10456661;28;20839;-58
2022/06/21 15:22:24;;;;;;;9.63;6.35;;;;;;;30.23;37.31;97066.81;10441480;28;20055;-58
2022/06/21 15:27:28;;;;;;;11.88;6.07;;;;;;;30.04;37.01;97063.16;10442766;28;20059;-58
2022/06/21 15:32:40;;;;;;;9.85;6.45;;;;;;;30.21;37.33;97061.63;10429605;28;20067;-58
2022/06/21 15:38:01;;;;;;;8.45;6.10;;;;;;;29.97;38.67;97066.53;10431940;28;20048;-58
2022/06/21 15:43:22;;;;;;;10.00;6.28;;;;;;;29.73;38.33;97056.22;10425895;28;20068;-58
2022/06/21 15:54:17;;;;;;;9.32;6.20;;;;;;;29.42;39.31;97065.16;10413771;28;20064;-58
2022/06/21 15:59:45;;;;;;;9.00;6.90;;;;;;;29.49;40.60;97060.94;10384303;28;20131;-58
2022/06/21 16:05:06;;;;;;;10.75;6.78;;;;;;;29.57;41.36;97078.13;10427923;28;20042;-58
2022/06/21 16:10:06;;;;;;;9.18;6.20;;;;;;;29.32;39.97;97074.97;10412586;28;20127;-58
2022/06/21 16:15:17;;;;;;;9.02;5.28;;;;;;;29.20;39.38;97057.28;10414052;28;20022;-58
2022/06/21 16:20:20;;;;;;;8.90;5.90;;;;;;;29.08;39.67;97060.06;10405977;28;20123;-58
2022/06/21 16:25:38;;;;;;;8.75;5.60;;;;;;;29.08;40.22;97060.06;10408053;28;20032;-58
2022/06/21 16:30:47;;;;;;;8.85;5.97;;;;;;;29.09;39.58;97040.38;10408182;28;20579;-58
2022/06/21 16:36:03;;;;;;;7.70;5.57;;;;;;;29.30;40.12;97055.53;10415767;28;20120;-58
2022/06/21 16:46:41;;;;;;;13.25;6.03;;;;;;;29.26;40.52;97064.81;10414113;28;20068;-58
2022/06/21 16:51:44;;;;;;;9.02;5.68;;;;;;;29.30;40.33;97068.91;10427464;28;20072;-58
2022/06/21 16:56:45;;;;;;;8.68;5.32;;;;;;;29.12;40.06;97082.00;10449284;28;20491;-58
2022/06/21 17:01:58;;;;;;;10.45;5.70;;;;;;;28.88;40.80;97085.00;10425281;28;20063;-58
2022/06/21 17:07:08;;;;;;;11.02;5.95;;;;;;;28.69;40.93;97092.88;10432943;28;20071;-58
2022/06/21 17:12:11;;;;;;;9.45;5.72;;;;;;;28.53;41.49;97094.16;10445468;28;20087;-58
2022/06/21 17:17:56;;;;;;;11.23;5.95;;;;;;;28.32;42.08;97083.47;10452397;28;20451;-58
2022/06/21 17:23:07;;;;;;;9.55;5.53;;;;;;;28.17;42.08;97074.94;10389870;28;20087;-58
2022/06/21 17:28:19;;;;;;;8.23;5.80;;;;;;;28.03;43.22;97080.53;10439276;28;20067;-58
2022/06/21 17:33:35;;;;;;;11.35;6.40;;;;;;;27.96;44.34;97098.00;10436169;28;20052;-58
2022/06/21 17:38:59;;;;;;;9.93;6.85;;;;;;;27.85;46.13;97090.06;10427555;28;20060;-58
2022/06/21 17:44:04;;;;;;;11.32;6.93;;;;;;;27.57;47.17;97089.63;10441353;28;20060;-58
2022/06/21 17:49:19;;;;;;;11.48;7.30;;;;;;;27.28;48.16;97098.09;10432646;28;20056;-58
2022/06/21 17:54:27;;;;;;;10.75;7.60;;;;;;;26.97;48.95;97108.50;10422134;28;20056;-58
2022/06/21 17:59:30;;;;;;;10.95;7.50;;;;;;;26.71;49.88;97115.81;10460687;28;20058;-58
2022/06/21 18:04:35;;;;;;;11.35;7.35;;;;;;;26.43;50.51;97102.94;10409378;28;20059;-58
2022/06/21 18:09:52;;;;;;;11.55;7.55;;;;;;;26.22;51.06;97116.03;10477318;28;20062;-58
2022/06/21 18:14:53;;;;;;;12.68;6.75;;;;;;;25.98;50.99;97116.00;10437004;28;20055;-58
2022/06/21 18:20:02;;;;;;;9.98;7.00;;;;;;;25.77;51.92;97113.97;10469451;28;20059;-58
2022/06/21 18:25:33;;;;;;;13.27;8.02;;;;;;;25.54;52.51;97102.34;10444839;28;20068;-58
2022/06/21 18:30:43;;;;;;;10.77;7.43;;;;;;;25.31;53.27;97106.59;10437070;28;20067;-58
2022/06/21 18:35:56;;;;;;;9.50;6.55;;;;;;;25.06;54.44;97104.84;10445557;28;20060;-58
2022/06/21 18:41:15;;;;;;;9.55;6.82;;;;;;;24.82;55.26;97099.38;10419921;28;20826;-58
2022/06/21 18:46:35;;;;;;;11.68;7.90;;;;;;;24.64;55.94;97086.44;10429640;28;20063;-58
2022/06/21 18:51:50;;;;;;;14.07;7.55;;;;;;;24.49;57.00;97101.59;10433647;28;20059;-58
2022/06/21 18:57:07;;;;;;;11.48;7.28;;;;;;;24.34;57.46;97121.19;10438914;28;20056;-58
2022/06/21 19:02:31;;;;;;;13.15;7.30;;;;;;;24.20;57.77;97130.06;10435047;28;20051;-58
2022/06/21 19:13:09;;;;;;;10.40;6.82;;;;;;;23.98;59.39;97127.97;10445127;28;20059;-58
2022/06/21 19:18:07;;;;;;;11.40;7.13;;;;;;;23.79;60.32;97145.97;10432096;28;20488;-58
2022/06/21 19:23:10;;;;;;;12.25;7.97;;;;;;;23.69;59.93;97144.88;10420270;28;20059;-58
2022/06/21 19:28:28;;;;;;;10.32;7.15;;;;;;;23.64;59.66;97164.56;10420610;28;20071;-58
2022/06/21 19:33:45;;;;;;;13.70;8.15;;;;;;;23.59;60.16;97177.25;10419428;28;20503;-58
2022/06/21 19:39:06;;;;;;;12.32;8.48;;;;;;;23.57;60.56;97202.97;10452698;28;20056;-58
2022/06/21 19:44:43;;;;;;;12.88;9.10;;;;;;;23.58;60.33;97202.03;10446932;28;20047;-58
2022/06/21 19:49:44;;;;;;;10.73;7.75;;;;;;;23.47;61.42;97191.25;10415154;28;20078;-58
2022/06/21 19:54:49;;;;;;;14.05;7.95;;;;;;;23.46;62.60;97200.09;10427618;28;20078;-58
2022/06/21 20:00:08;;;;;;;13.50;8.38;;;;;;;23.35;62.63;97214.03;10443606;28;20056;-58
2022/06/21 20:05:28;;;;;;;9.90;7.68;;;;;;;23.28;63.29;97207.41;10400834;28;20071;-58
2022/06/21 20:10:32;;;;;;;12.68;7.88;;;;;;;23.10;64.33;97190.84;10475653;28;20502;-58
2022/06/21 20:15:57;;;;;;;13.02;8.18;;;;;;;22.91;64.83;97198.19;10455669;28;20052;-58
2022/06/21 20:21:35;;;;;;;13.05;8.95;;;;;;;22.76;66.71;97202.56;10441785;28;20071;-58
2022/06/21 20:26:42;;;;;;;16.42;11.82;;;;;;;22.56;67.72;97206.38;10451984;28;20067;-58
2022/06/21 20:31:47;;;;;;;19.55;13.00;;;;;;;22.44;68.18;97204.44;10454036;28;20082;-58
2022/06/21 20:37:11;;;;;;;16.10;12.52;;;;;;;22.36;68.86;97194.28;10454688;28;20058;-58
2022/06/21 20:42:18;;;;;;;18.52;12.98;;;;;;;22.24;70.11;97195.84;10451564;28;20060;-57
2022/06/21 20:47:50;;;;;;;21.10;12.23;;;;;;;22.12;70.10;97186.81;10447500;28;20513;-58
2022/06/21 20:53:15;;;;;;;13.18;10.60;;;;;;;22.05;71.47;97181.97;10458185;28;20055;-57
2022/06/21 20:58:18;;;;;;;12.63;10.65;;;;;;;21.85;73.17;97189.22;10430153;28;20070;-57
2022/06/21 21:03:22;;;;;;;19.05;12.75;;;;;;;21.67;73.89;97171.75;10468756;28;20062;-57
2022/06/21 21:08:27;;;;;;;17.85;12.52;;;;;;;21.59;74.47;97182.69;10452947;28;20058;-57
2022/06/21 21:13:34;;;;;;;19.42;12.95;;;;;;;21.35;76.29;97184.88;10475562;28;20050;-58
2022/06/21 21:18:45;;;;;;;20.23;13.20;;;;;;;21.40;75.91;97193.41;10465882;28;20079;-57
2022/06/21 21:23:48;;;;;;;17.92;13.73;;;;;;;21.31;76.22;97180.69;10430574;28;20067;-57
2022/06/21 21:28:53;;;;;;;19.30;14.30;;;;;;;21.32;76.23;97180.63;10430101;28;20091;-58
2022/06/21 21:34:13;;;;;;;19.35;13.15;;;;;;;21.26;76.43;97185.38;10430700;28;20040;-57
2022/06/21 21:39:31;;;;;;;17.67;13.50;;;;;;;21.16;77.12;97179.69;10430167;28;20053;-57
2022/06/21 21:44:34;;;;;;;26.23;13.55;;;;;;;21.10;77.33;97165.06;10447420;28;20067;-57
2022/06/21 21:49:39;;;;;;;16.75;12.23;;;;;;;21.05;77.42;97174.13;10461195;28;20060;-58
2022/06/21 21:54:43;;;;;;;17.00;10.88;;;;;;;21.00;77.42;97173.53;10468416;28;20048;-58
2022/06/21 21:59:47;;;;;;;15.77;10.60;;;;;;;20.91;77.54;97172.22;10479232;28;20066;-58
2022/06/21 22:05:17;;;;;;;13.77;9.85;;;;;;;20.83;77.43;97167.34;10480589;28;20071;-58
2022/06/21 22:10:39;;;;;;;14.70;10.65;;;;;;;20.75;78.06;97164.25;10484615;28;20055;-58
2022/06/21 22:15:51;;;;;;;13.52;11.05;;;;;;;20.64;78.45;97172.72;10418192;28;20071;-57
2022/06/21 22:20:54;;;;;;;14.25;10.90;;;;;;;20.59;78.56;97168.63;10423346;28;20051;-58
2022/06/21 22:25:56;;;;;;;14.88;10.25;;;;;;;20.52;78.49;97168.06;10460468;28;20055;-58
2022/06/21 22:31:05;;;;;;;15.18;10.18;;;;;;;20.42;78.64;97166.81;10440552;28;20064;-58
2022/06/21 22:36:05;;;;;;;15.30;10.88;;;;;;;20.25;80.47;97163.19;10446881;28;20078;-57
2022/06/21 22:41:05;;;;;;;20.85;14.20;;;;;;;19.97;82.97;97165.47;10419017;28;20060;-58
2022/06/21 22:46:09;;;;;;;19.85;14.05;;;;;;;19.87;83.36;97165.06;10418378;28;20060;-57
2022/06/21 22:51:17;;;;;;;21.67;14.20;;;;;;;19.81;84.23;97171.50;10419082;28;20078;-57
2022/06/21 22:56:19;;;;;;;20.02;14.35;;;;;;;19.77;83.92;97180.47;10458945;28;20079;-57
2022/06/21 23:01:28;;;;;;;24.00;14.30;;;;;;;19.75;83.75;97171.78;10459356;28;20432;-57
2022/06/21 23:06:44;;;;;;;18.73;14.25;;;;;;;19.74;83.72;97185.84;10433286;28;20063;-57
2022/06/21 23:11:47;;;;;;;22.20;13.70;;;;;;;19.68;84.32;97193.19;10481279;28;20074;-57
2022/06/21 23:16:57;;;;;;;19.77;14.27;;;;;;;19.65;84.84;97208.22;10499216;28;20054;-57
2022/06/21 23:22:01;;;;;;;22.67;14.68;;;;;;;19.63;84.92;97204.78;10468464;28;20055;-57
2022/06/21 23:27:03;;;;;;;18.33;13.40;;;;;;;19.52;85.04;97195.66;10458189;28;20059;-57
2022/06/21 23:32:06;;;;;;;20.00;14.43;;;;;;;19.37;86.12;97186.66;10457265;28;20084;-57
2022/06/21 23:37:07;;;;;;;19.05;12.98;;;;;;;19.13;87.76;97194.72;10458306;28;20055;-57
2022/06/21 23:42:13;;;;;;;16.40;11.77;;;;;;;19.07;87.81;97215.22;10457787;28;20063;-57
2022/06/21 23:47:37;;;;;;;18.35;12.02;;;;;;;18.52;88.85;97213.97;10457976;28;20056;-57
2022/06/21 23:52:36;;;;;;;15.60;12.05;;;;;;;18.39;89.28;97229.38;10451937;28;20071;-58
2022/06/21 23:57:35;;;;;;;18.38;12.35;;;;;;;18.33;89.89;97218.28;10457840;28;20503;-57
